Latest Weather Observations for Sydney Airport

IDN60901

Issued at 5:12 pm EDT Friday 30 January 2015 (issued every 10 minutes, with the page automatically refreshed every 10 minutes)

About weather observations | Map of Sydney area stations | Latest observations for Sydney area | Other Formats
Station Details ID: 066037 Name: SYDNEY AIRPORT AMO Lat: -33.95 Lon: 151.17 Height: 6.0 m
Data from the previous 72 hours. | See also: Recent months at Sydney Airport
Date/Time
EDT
Tmp

°C
App
Tmp
°C
Dew
Point
°C
Rel
Hum
%
Delta-T

°C
Wind Press
QNH
hPa
Press
MSL
hPa
Rain
since
9 am
mm
Dir
 
Spd
km/h
Gust
km/h
Spd
kts
Gust
kts
30/05:00pm 22.0 18.7 11.7 52 5.8 S 20 28 11 15 1005.2 1005.2 0.0
30/04:30pm 22.9 19.5 10.6 45 6.8 SSE 19 26 10 14 1005.2 1005.2 0.0
30/04:00pm 23.0 19.6 11.4 48 6.5 SSE 20 26 11 14 1005.5 1005.5 0.0
30/03:30pm 23.0 18.1 11.4 48 6.5 SSE 28 33 15 18 1005.6 1005.6 0.0
30/03:00pm 23.3 18.9 10.4 44 7.1 SSE 24 32 13 17 1005.6 1005.6 0.0
30/02:30pm 23.0 19.0 11.9 49 6.3 SSE 24 30 13 16 1006.1 1006.1 0.0
30/02:00pm 23.1 19.1 10.6 45 6.9 SSW 22 33 12 18 1006.5 1006.5 0.0
30/01:30pm 23.8 18.1 6.9 33 8.8 SW 26 35 14 19 1006.8 1006.8 0.0
30/12:30pm 23.0 18.6 7.2 36 8.2 SSW 20 30 11 16 1007.3 1007.3 0.0
30/12:00pm 21.8 19.2 7.8 40 7.3 SSW 11 26 6 14 1007.6 1007.6 0.0
30/11:30am 22.2 19.4 8.6 41 7.2 S 13 22 7 12 1008.2 1008.2 0.0
30/11:00am 21.4 18.9 8.0 42 7.0 SW 11 24 6 13 1008.6 1008.6 0.0
30/10:30am 21.1 17.2 7.3 41 7.1 WSW 17 22 9 12 1008.9 1008.9 0.0
30/10:00am 20.2 15.9 7.0 42 6.7 WSW 19 28 10 15 1009.2 1009.2 0.0
30/09:30am 19.3 14.8 7.0 44 6.2 W 20 28 11 15 1009.4 1009.4 0.0
30/08:30am 18.0 12.4 7.0 48 5.5 W 26 33 14 18 1009.6 1009.6 0.0
30/07:30am 16.5 11.6 8.5 59 4.1 W 24 30 13 16 1009.4 1009.4 0.0
30/07:00am 15.8 11.6 8.3 61 3.8 WNW 20 28 11 15 1009.3 1009.3 0.0
30/06:30am 14.6 10.8 9.8 73 2.5 WNW 20 26 11 14 1009.2 1009.2 0.0
30/05:30am 14.4 10.3 10.0 75 2.3 W 22 26 12 14 1009.0 1009.0 0.0
30/05:00am 14.8 11.3 10.2 74 2.4 W 19 22 10 12 1008.9 1008.9 0.0
30/04:30am 14.7 11.9 10.1 74 2.4 W 15 17 8 9 1009.0 1009.0 0.0
30/04:00am 14.6 11.5 10.2 75 2.3 W 17 20 9 11 1009.2 1009.2 0.0
30/03:00am 15.4 12.2 9.8 69 2.9 W 17 19 9 10 1009.6 1009.6 0.0
30/02:30am 15.8 11.7 8.8 63 3.6 W 20 26 11 14 1009.8 1009.8 0.0
30/02:00am 16.1 11.3 8.7 61 3.8 W 24 28 13 15 1010.1 1010.1 0.0
30/01:30am 16.3 11.2 9.1 62 3.7 W 26 30 14 16 1010.4 1010.4 0.0
30/01:00am 16.3 11.7 9.8 65 3.4 W 24 28 13 15 1010.7 1010.7 0.0
30/12:30am 16.6 12.0 9.7 63 3.6 W 24 28 13 15 1010.9 1010.9 0.0
 
Date/Time
EDT
Tmp

°C
App
Tmp
°C
Dew
Point
°C
Rel
Hum
%
Delta-T

°C
Wind Press
QNH
hPa
Press
MSL
hPa
Rain
since
9 am
mm
Dir
 
Spd
km/h
Gust
km/h
Spd
kts
Gust
kts
29/10:30pm 19.0 13.3 11.3 61 4.2 SSW 32 41 17 22 1011.7 1011.7 0.0
29/10:00pm 19.3 12.8 11.7 61 4.2 SSW 37 48 20 26 1011.6 1011.6 0.0
29/09:30pm 19.3 13.1 11.3 60 4.4 SSW 35 50 19 27 1011.5 1011.5 0.0
29/09:00pm 19.5 12.1 12.3 63 4.0 SSW 43 54 23 29 1011.3 1011.3 0.0
29/08:30pm 19.7 11.5 11.8 60 4.4 SSW 46 61 25 33 1011.1 1011.1 0.0
29/08:11pm 19.7 12.9 12.0 61 4.3 SSW 39 57 21 31 1011.0 1011.0 0.0
29/08:00pm 19.8 12.5 12.7 63 4.0 SSW 43 56 23 30 1010.9 1010.9 0.0
29/07:30pm 19.8 11.8 12.5 62 4.1 S 46 57 25 31 1010.6 1010.6 0.0
29/07:00pm 20.2 11.9 12.6 61 4.3 S 48 61 26 33 1010.4 1010.4 0.0
29/06:30pm 20.6 13.1 12.2 58 4.7 S 43 56 23 30 1010.2 1010.2 0.0
29/05:30pm 20.9 12.5 10.9 52 5.5 S 46 56 25 30 1010.1 1010.1 0.0
29/05:06pm 20.8 12.6 11.8 56 5.0 S 46 65 25 35 1010.3 1010.3 0.0
29/05:00pm 20.8 13.0 11.2 54 5.3 S 43 54 23 29 1010.2 1010.2 0.0
29/04:30pm 21.0 12.6 12.3 57 4.9 S 48 57 26 31 1010.3 1010.3 0.0
29/04:00pm 21.2 13.4 11.7 54 5.3 S 44 57 24 31 1010.3 1010.3 0.0
29/03:30pm 21.1 13.0 12.0 56 5.1 S 46 57 25 31 1010.6 1010.6 0.0
29/03:00pm 21.0 14.0 11.4 54 5.3 S 39 54 21 29 1010.9 1010.9 0.0
29/02:30pm 21.2 12.7 12.1 56 5.1 S 48 61 26 33 1011.3 1011.3 0.0
29/02:00pm 20.9 13.1 11.7 55 5.1 S 44 54 24 29 1011.4 1011.4 0.0
29/01:30pm 21.1 14.2 9.0 46 6.4 S 35 44 19 24 1011.6 1011.6 0.0
29/01:00pm 21.2 15.1 10.4 50 5.9 SSW 33 44 18 24 1011.9 1011.9 0.0
29/12:30pm 21.0 13.4 10.5 51 5.7 SSW 41 52 22 28 1012.0 1012.0 0.0
29/12:00pm 20.5 13.9 10.1 51 5.6 SSW 35 44 19 24 1012.3 1012.3 0.0
29/11:30am 20.1 12.5 8.9 48 5.9 SSW 39 50 21 27 1012.5 1012.5 0.0
29/11:00am 20.0 13.4 9.9 52 5.4 SSW 35 48 19 26 1012.7 1012.7 0.0
29/10:30am 19.5 13.3 9.3 51 5.4 SSW 32 44 17 24 1012.8 1012.8 0.0
29/10:00am 19.3 12.3 9.9 54 5.0 SW 37 48 20 26 1012.9 1012.9 0.0
29/09:30am 18.7 12.1 10.1 57 4.6 SW 35 46 19 25 1012.9 1012.9 0.0
29/09:00am 18.2 12.0 10.1 59 4.3 SSW 33 46 18 25 1012.8 1012.8 5.2
29/08:30am 17.9 11.7 9.5 58 4.4 SW 32 48 17 26 1013.0 1013.0 5.2
29/08:00am 17.5 10.6 9.0 57 4.4 SW 35 48 19 26 1012.8 1012.8 5.2
29/07:35am 17.4 11.1 9.1 58 4.3 SW 32 50 17 27 1012.7 1012.7 5.2
29/07:30am 17.3 11.1 9.5 60 4.1 SW 32 39 17 21 1012.6 1012.6 5.2
29/07:00am 17.0 11.0 10.2 64 3.6 SW 32 41 17 22 1012.5 1012.5 5.2
29/06:30am 16.5 11.0 10.5 67 3.2 SW 30 44 16 24 1012.1 1012.1 5.2
29/06:00am 15.6 9.5 10.5 71 2.7 SW 33 41 18 22 1011.9 1011.9 5.2
29/05:30am 15.9 11.4 10.2 69 3.0 SW 24 35 13 19 1011.7 1011.7 5.2
29/05:00am 16.3 11.6 10.5 68 3.1 SW 26 33 14 18 1011.5 1011.5 5.2
29/04:30am 17.1 11.5 11.6 70 3.0 SW 32 39 17 21 1011.5 1011.5 5.2
29/04:00am 17.1 11.6 12.4 74 2.6 SW 33 43 18 23 1011.7 1011.7 5.2
29/03:30am 16.9 12.0 12.4 75 2.5 SW 30 39 16 21 1011.8 1011.8 5.2
29/03:00am 17.2 11.9 13.1 77 2.3 SW 33 48 18 26 1012.0 1012.0 5.2
29/02:30am 17.3 12.5 13.0 76 2.4 SW 30 39 16 21 1012.2 1012.2 5.2
29/02:00am 17.8 11.8 13.2 74 2.6 SSW 37 46 20 25 1012.6 1012.6 5.2
29/01:30am 18.2 12.5 14.2 77 2.3 SSW 37 46 20 25 1012.9 1012.9 5.2
29/01:00am 17.4 12.9 12.7 74 2.6 SW 28 35 15 19 1013.1 1013.1 5.2
29/12:30am 18.0 13.0 13.4 74 2.6 SW 32 39 17 21 1013.1 1013.1 5.2
29/12:00am 18.4 13.5 13.8 74 2.6 SSW 32 41 17 22 1013.2 1013.2 5.2
 
Date/Time
EDT
Tmp

°C
App
Tmp
°C
Dew
Point
°C
Rel
Hum
%
Delta-T

°C
Wind Press
QNH
hPa
Press
MSL
hPa
Rain
since
9 am
mm
Dir
 
Spd
km/h
Gust
km/h
Spd
kts
Gust
kts
28/11:30pm 18.3 13.3 13.5 73 2.7 SW 32 39 17 21 1013.2 1013.2 5.2
28/11:00pm 18.5 13.9 13.6 73 2.8 SW 30 37 16 20 1013.4 1013.4 5.2
28/10:30pm 18.7 13.7 13.4 71 3.0 SW 32 37 17 20 1013.6 1013.6 5.2
28/10:00pm 18.7 15.0 13.8 73 2.8 SW 26 35 14 19 1013.7 1013.7 5.2
28/09:30pm 18.8 13.8 13.5 71 3.0 SW 32 37 17 20 1013.6 1013.6 5.2
28/09:00pm 18.8 13.9 13.7 72 2.9 SW 32 37 17 20 1013.5 1013.5 5.2
28/08:30pm 19.5 15.3 14.7 74 2.8 SSW 30 37 16 20 1013.5 1013.5 5.2
28/08:00pm 19.4 15.1 15.3 77 2.4 SW 32 37 17 20 1013.3 1013.3 5.2
28/07:30pm 19.1 14.5 15.2 78 2.3 SSW 33 41 18 22 1013.2 1013.2 5.2
28/07:00pm 19.4 13.6 15.0 75 2.6 SSW 39 50 21 27 1013.1 1013.1 5.2
28/06:30pm 20.6 16.1 15.0 70 3.3 SSW 32 37 17 20 1012.8 1012.8 5.2
28/06:00pm 20.8 16.3 14.8 68 3.5 S 32 37 17 20 1012.8 1012.8 5.2
28/05:30pm 20.9 16.3 15.0 69 3.5 S 33 43 18 23 1012.9 1012.9 5.2
28/05:00pm 19.1 15.0 15.9 82 1.9 S 32 43 17 23 1012.9 1012.9 5.2
28/04:41pm 20.4 16.7 15.1 71 3.1 SSW 28 48 15 26 1013.0 1013.0 5.2
28/04:30pm 20.6 17.4 15.4 72 3.1 SSW 26 33 14 18 1013.0 1013.0 5.2
28/04:00pm 20.5 16.9 14.3 67 3.6 SSE 26 33 14 18 1013.1 1013.1 5.2
28/03:30pm 20.4 17.0 15.7 74 2.8 S 28 41 15 22 1013.0 1013.0 4.8
28/03:00pm 19.6 17.5 16.1 80 2.1 SSW 22 28 12 15 1013.3 1013.3 4.8
28/02:30pm 18.6 18.2 16.3 86 1.4 S 13 17 7 9 1013.7 1013.7 4.8
28/02:00pm 18.0 16.7 16.7 92 0.8 SSW 19 26 10 14 1013.8 1013.8 4.8
28/01:37pm 18.8 18.1 16.3 85 1.5 SW 15 41 8 22 1014.1 1014.1 1.2
28/01:30pm 18.9 19.2 16.0 83 1.7 SW 9 11 5 6 1013.9 1013.9 1.2
28/01:00pm 18.7 17.4 15.8 83 1.7 S 17 22 9 12 1014.2 1014.2 1.2
28/12:30pm 18.7 15.8 15.1 79 2.1 SE 24 30 13 16 1014.1 1014.1 1.2
28/12:14pm 18.0 13.8 15.8 87 1.3 S 32 52 17 28 1014.3 1014.3 1.2
28/12:08pm 19.6 16.9 15.5 77 2.4 SSE 24 46 13 25 1014.2 1014.2 1.0
28/12:00pm 19.4 17.3 15.1 76 2.5 SSE 20 26 11 14 1014.0 1014.0 1.0
28/11:30am 19.4 15.8 15.3 77 2.4 SE 28 43 15 23 1014.2 1014.2 1.0
28/11:00am 19.4 16.8 15.0 75 2.6 SE 22 30 12 16 1014.1 1014.1 1.0
28/10:30am 18.6 16.6 15.4 81 1.9 SSE 20 30 11 16 1013.8 1013.8 1.0
28/10:00am 18.6 16.3 16.6 88 1.2 S 24 30 13 16 1013.9 1013.9 0.2
28/09:30am 18.4 15.0 15.7 84 1.6 S 28 35 15 19 1013.7 1013.7 0.2
28/09:00am 17.5 13.8 16.0 91 0.9 SSE 30 41 16 22 1013.5 1013.5 40.2
28/08:30am 18.0 14.9 16.5 91 0.9 SSE 28 37 15 20 1013.2 1013.2 39.6
28/08:00am 18.6 15.1 16.6 88 1.2 SSE 30 37 16 20 1012.7 1012.7 39.0
28/07:30am 18.3 15.8 17.1 93 0.7 SSE 26 33 14 18 1012.4 1012.4 38.8
28/07:00am 17.6 16.2 16.9 96 0.4 S 20 26 11 14 1011.9 1011.9 37.8
28/06:30am 17.4 16.3 16.4 94 0.6 WSW 17 22 9 12 1011.6 1011.6 34.8
28/06:00am 17.0 17.0 16.3 96 0.4 SE 11 19 6 10 1011.4 1011.4 34.6
28/05:30am 17.9 16.5 17.1 95 0.5 S 20 33 11 18 1011.4 1011.4 28.0
28/05:20am 18.0 15.5 17.0 94 0.6 SSW 26 35 14 19 1011.3 1011.3 26.2
28/05:00am 18.2 16.8 17.0 93 0.7 S 20 26 11 14 1011.2 1011.2 25.6
28/04:56am 18.2 16.4 16.9 92 0.8 S 22 26 12 14 1011.3 1011.3 25.6
28/04:30am 19.1 16.3 16.4 84 1.6 SSE 26 33 14 18 1011.1 1011.1 25.2
28/04:00am 19.2 16.5 16.5 84 1.6 SSE 26 35 14 19 1011.2 1011.2 25.2
28/03:30am 19.8 16.8 15.9 78 2.3 S 26 35 14 19 1011.1 1011.1 25.2
28/03:00am 19.5 18.2 16.9 85 1.6 S 19 24 10 13 1011.2 1011.2 25.2
28/02:30am 19.0 17.7 17.2 89 1.1 SSW 20 28 11 15 1011.5 1011.5 25.0
28/02:00am 18.9 17.7 17.4 91 0.9 SSW 20 26 11 14 1011.9 1011.9 24.6
28/01:30am 19.0 18.1 17.7 92 0.8 SSW 19 24 10 13 1012.2 1012.2 24.6
28/01:00am 18.3 19.0 17.1 93 0.7 SSE 9 17 5 9 1012.6 1012.6 24.4
28/12:30am 18.5 18.3 17.5 94 0.6 ESE 15 22 8 12 1012.7 1012.7 23.6
28/12:23am 18.7 19.0 17.9 95 0.5 SSE 13 17 7 9 1012.7 1012.7 23.0
28/12:00am 18.7 17.9 17.9 95 0.5 SW 19 24 10 13 1012.6 1012.6 21.6
 
Date/Time
EDT
Tmp

°C
App
Tmp
°C
Dew
Point
°C
Rel
Hum
%
Delta-T

°C
Wind Press
QNH
hPa
Press
MSL
hPa
Rain
since
9 am
mm
Dir
 
Spd
km/h
Gust
km/h
Spd
kts
Gust
kts
27/11:30pm 18.9 19.2 17.8 93 0.7 SW 13 17 7 9 1013.0 1013.0 21.4
27/11:00pm 18.3 17.5 17.0 92 0.8 SSW 17 28 9 15 1012.8 1012.8 20.6
27/10:30pm 18.6 18.9 16.1 85 1.5 S 9 17 5 9 1013.0 1013.0 20.4
27/10:00pm 18.0 17.4 16.7 92 0.8 E 15 17 8 9 1013.2 1013.2 20.2
27/09:30pm 18.8 17.7 17.8 94 0.6 SSE 20 32 11 17 1012.8 1012.8 18.2
27/09:25pm 19.3 18.4 18.2 93 0.7 S 20 32 11 17 1012.8 1012.8 17.8
27/09:00pm 18.9 19.7 17.4 91 0.9 SSW 9 13 5 7 1012.7 1012.7 17.8
27/08:30pm 18.8 20.2 17.7 93 0.7 ESE 7 9 4 5 1012.8 1012.8 17.8
27/08:26pm 18.7 20.0 17.6 93 0.7 E 7 9 4 5 1012.8 1012.8 17.8
27/08:00pm 18.9 19.5 17.6 92 0.8 NE 11 17 6 9 1012.5 1012.5 17.8
27/07:53pm 19.3 19.6 18.0 92 0.8 NE 13 15 7 8 1012.5 1012.5 17.8
27/07:30pm 19.0 19.6 17.7 92 0.8 S 11 19 6 10 1012.3 1012.3 17.6
27/07:24pm 19.0 19.1 17.5 91 0.9 SSW 13 19 7 10 1012.3 1012.3 17.6
27/07:00pm 18.9 19.2 17.8 93 0.7 SW 13 17 7 9 1012.0 1012.0 17.6
27/06:30pm 19.3 20.4 18.0 92 0.8 SW 9 11 5 6 1011.9 1011.9 17.6
27/06:09pm 19.2 20.3 17.9 92 0.8 N 9 13 5 7 1011.7 1011.7 17.2
27/06:00pm 19.3 20.4 18.0 92 0.8 N 9 11 5 6 1011.6 1011.6 16.2
27/05:30pm 20.4 20.7 17.8 85 1.6 N 13 17 7 9 1011.7 1011.7 16.0

Latest Capital City Observations: Canberra | Sydney | Melbourne | Brisbane | Adelaide | Perth | Hobart | Darwin

Other Formats:

Comma delimited format used in spreadsheet applications
http://www.bom.gov.au/fwo/IDN60901/IDN60901.94767.axf

JavaScript Object Notation format (JSON) in row-major order
http://www.bom.gov.au/fwo/IDN60901/IDN60901.94767.json